Time;durP1;ratioP1;P1;durP2;ratioP2;P2;SDS_P1;SDS_P2;PMS_P1;PMS_P2;Temp;Humidity;BMP_temperature;BMP_pressure;BME280_temperature;BME280_humidity;BME280_pressure;Samples;Min_cycle;Max_cycle;Signal;HPM_P1;HPM_P2
2021/04/30 00:01:43;;;;;;;6.28;2.20;;;;;;;;;;5009589;28;20033;-67
2021/04/30 00:04:09;;;;;;;5.90;2.50;;;;;;;;;;5004891;28;20014;-67
2021/04/30 00:06:35;;;;;;;6.20;2.55;;;;;;;;;;5007191;28;20058;-79
2021/04/30 00:09:01;;;;;;;8.90;2.88;;;;;;;;;;5008494;28;20505;-71
2021/04/30 00:11:27;;;;;;;5.00;2.17;;;;;;;;;;5009297;28;20025;-67
2021/04/30 00:13:54;;;;;;;14.80;2.53;;;;;;;;;;5009349;28;20030;-67
2021/04/30 00:16:20;;;;;;;4.80;2.10;;;;;;;;;;5009223;28;20018;-67
2021/04/30 00:18:46;;;;;;;7.82;1.90;;;;;;;;;;5009440;28;20061;-67
2021/04/30 00:21:12;;;;;;;7.63;2.42;;;;;;;;;;5004838;28;20030;-67
2021/04/30 00:23:38;;;;;;;7.20;2.10;;;;;;;;;;4990436;28;20433;-67
2021/04/30 00:26:06;;;;;;;5.35;2.20;;;;;;;;;;4994437;28;20539;-68
2021/04/30 00:28:32;;;;;;;8.07;2.00;;;;;;;;;;5009009;28;20041;-67
2021/04/30 00:30:58;;;;;;;5.95;2.38;;;;;;;;;;5008693;28;20141;-66
2021/04/30 00:33:25;;;;;;;7.60;1.92;;;;;;;;;;5040794;28;20048;-66
2021/04/30 00:35:51;;;;;;;4.30;2.03;;;;;;;;;;5008919;28;20044;-67
2021/04/30 00:38:19;;;;;;;6.22;2.47;;;;;;;;;;5008453;28;20026;-67
2021/04/30 00:40:45;;;;;;;8.20;2.25;;;;;;;;;;5008398;28;20037;-68
2021/04/30 00:43:11;;;;;;;4.15;2.00;;;;;;;;;;5009131;28;20272;-74
2021/04/30 00:45:37;;;;;;;10.75;2.20;;;;;;;;;;5009074;28;20030;-67
2021/04/30 00:48:04;;;;;;;6.38;1.92;;;;;;;;;;4993856;28;20058;-67
2021/04/30 00:50:32;;;;;;;3.75;1.90;;;;;;;;;;4989227;28;20026;-70
2021/04/30 00:52:58;;;;;;;5.28;2.25;;;;;;;;;;4989270;28;20045;-67
2021/04/30 00:55:24;;;;;;;4.90;2.08;;;;;;;;;;4989637;28;20064;-67
2021/04/30 00:58:00;;;;;;;4.40;1.98;;;;;;;;;;4999931;28;20500;-67
2021/04/30 01:00:27;;;;;;;4.88;2.28;;;;;;;;;;5008727;28;20026;-67
2021/04/30 01:02:54;;;;;;;5.28;2.40;;;;;;;;;;5008547;28;20050;-67
2021/04/30 01:05:20;;;;;;;4.07;2.10;;;;;;;;;;4992579;28;20026;-67
2021/04/30 01:07:47;;;;;;;4.88;2.00;;;;;;;;;;5006624;28;20076;-66
2021/04/30 01:10:13;;;;;;;3.90;1.90;;;;;;;;;;5040001;28;20033;-67
2021/04/30 01:12:39;;;;;;;4.30;2.10;;;;;;;;;;5006205;28;20080;-67
2021/04/30 01:15:06;;;;;;;5.90;2.40;;;;;;;;;;5020465;28;20029;-67
2021/04/30 01:17:34;;;;;;;6.90;2.03;;;;;;;;;;4993439;28;20664;-67
2021/04/30 01:20:00;;;;;;;4.40;1.95;;;;;;;;;;5009435;28;20022;-67
2021/04/30 01:22:38;;;;;;;4.75;1.95;;;;;;;;;;5010573;28;20034;-67
2021/04/30 01:25:06;;;;;;;6.43;2.30;;;;;;;;;;5011796;28;20021;-71
2021/04/30 01:27:32;;;;;;;4.03;1.90;;;;;;;;;;5012090;28;20505;-67
2021/04/30 01:29:58;;;;;;;5.80;2.00;;;;;;;;;;5042916;28;20033;-67
2021/04/30 01:32:24;;;;;;;4.82;1.70;;;;;;;;;;5043241;28;20410;-67
2021/04/30 01:34:50;;;;;;;4.30;1.92;;;;;;;;;;5011529;28;20026;-67
2021/04/30 01:37:16;;;;;;;5.57;2.50;;;;;;;;;;5011865;28;20075;-67
2021/04/30 01:39:42;;;;;;;4.22;2.25;;;;;;;;;;5011771;28;20473;-68
2021/04/30 01:42:10;;;;;;;4.35;1.60;;;;;;;;;;5043340;28;20045;-67
2021/04/30 01:44:36;;;;;;;3.83;1.98;;;;;;;;;;5011334;28;20503;-67
2021/04/30 01:47:02;;;;;;;3.70;1.98;;;;;;;;;;5010686;28;20041;-61
2021/04/30 01:49:29;;;;;;;5.43;2.38;;;;;;;;;;5011774;28;20496;-69
2021/04/30 01:51:55;;;;;;;4.90;1.80;;;;;;;;;;5011424;28;20037;-67
2021/04/30 01:54:22;;;;;;;4.50;1.70;;;;;;;;;;5043223;28;20028;-67
2021/04/30 01:56:48;;;;;;;6.13;2.38;;;;;;;;;;5011569;28;20058;-67
2021/04/30 01:59:14;;;;;;;5.85;1.98;;;;;;;;;;5043281;28;20025;-67
2021/04/30 02:01:40;;;;;;;8.20;1.80;;;;;;;;;;5034608;28;20121;-67
2021/04/30 02:04:10;;;;;;;4.50;2.00;;;;;;;;;;4997137;28;20074;-67
2021/04/30 02:06:36;;;;;;;4.85;2.38;;;;;;;;;;5042852;28;20033;-66
2021/04/30 02:09:03;;;;;;;5.68;2.35;;;;;;;;;;5011176;28;20477;-67
2021/04/30 02:11:29;;;;;;;6.15;1.95;;;;;;;;;;5011076;28;20536;-67
2021/04/30 02:13:55;;;;;;;5.97;2.10;;;;;;;;;;5011209;28;20026;-70
2021/04/30 02:16:21;;;;;;;3.90;1.55;;;;;;;;;;5011057;28;20029;-67
2021/04/30 02:18:47;;;;;;;4.93;2.08;;;;;;;;;;5011136;28;20040;-67
2021/04/30 02:21:13;;;;;;;5.28;1.60;;;;;;;;;;5010121;28;20026;-67
2021/04/30 02:23:39;;;;;;;3.97;1.60;;;;;;;;;;5010799;28;20120;-67
2021/04/30 02:26:06;;;;;;;3.38;1.55;;;;;;;;;;5011094;28;20022;-67
2021/04/30 02:28:32;;;;;;;5.13;1.90;;;;;;;;;;5011251;28;20118;-67
2021/04/30 02:30:58;;;;;;;3.70;1.63;;;;;;;;;;5010376;28;20121;-67
2021/04/30 02:33:24;;;;;;;5.35;1.85;;;;;;;;;;5010503;28;20072;-66
2021/04/30 02:35:50;;;;;;;5.10;2.20;;;;;;;;;;5010817;28;20662;-67
2021/04/30 02:38:18;;;;;;;4.53;2.10;;;;;;;;;;5009912;28;20113;-67
2021/04/30 02:40:45;;;;;;;6.78;1.92;;;;;;;;;;5010861;28;20025;-66
2021/04/30 02:43:12;;;;;;;6.40;2.22;;;;;;;;;;5010112;28;20038;-67
2021/04/30 02:45:38;;;;;;;4.57;2.10;;;;;;;;;;5010719;28;20081;-66
2021/04/30 02:48:25;;;;;;;5.00;2.13;;;;;;;;;;5010457;28;20022;-67
2021/04/30 02:50:51;;;;;;;5.68;2.22;;;;;;;;;;5010749;28;20018;-67
2021/04/30 02:53:17;;;;;;;4.40;2.08;;;;;;;;;;5009340;28;20037;-67
2021/04/30 02:55:43;;;;;;;6.78;2.47;;;;;;;;;;5010141;28;20033;-67
2021/04/30 02:58:10;;;;;;;7.78;2.35;;;;;;;;;;5010679;28;20022;-67
2021/04/30 03:00:36;;;;;;;3.75;1.70;;;;;;;;;;5010592;28;20030;-66
2021/04/30 03:03:02;;;;;;;4.72;2.10;;;;;;;;;;5010306;28;20041;-67
2021/04/30 03:05:28;;;;;;;4.45;2.30;;;;;;;;;;4993390;28;20026;-67
2021/04/30 03:07:55;;;;;;;4.90;2.08;;;;;;;;;;4990810;28;20383;-67
2021/04/30 03:10:21;;;;;;;3.95;1.90;;;;;;;;;;4990821;28;20052;-67
2021/04/30 03:12:47;;;;;;;3.95;2.08;;;;;;;;;;4989848;28;20022;-67
2021/04/30 03:15:15;;;;;;;5.50;2.63;;;;;;;;;;5007503;28;20037;-67
2021/04/30 03:17:42;;;;;;;4.70;2.35;;;;;;;;;;5002753;28;20023;-67
2021/04/30 03:20:08;;;;;;;4.40;1.90;;;;;;;;;;4989759;28;20027;-67
2021/04/30 03:22:34;;;;;;;4.35;2.10;;;;;;;;;;4989462;28;20105;-67
2021/04/30 03:25:01;;;;;;;4.22;2.00;;;;;;;;;;5001902;28;20109;-67
2021/04/30 03:27:27;;;;;;;5.07;2.20;;;;;;;;;;5009602;28;20492;-67
2021/04/30 03:29:56;;;;;;;5.85;1.98;;;;;;;;;;5008611;28;20049;-67
2021/04/30 03:32:23;;;;;;;4.72;2.30;;;;;;;;;;5009346;28;20054;-69
2021/04/30 03:34:49;;;;;;;4.07;1.80;;;;;;;;;;5009351;28;20383;-67
2021/04/30 03:37:15;;;;;;;5.68;1.75;;;;;;;;;;5009272;28;20026;-69
2021/04/30 03:39:41;;;;;;;3.35;1.80;;;;;;;;;;5009470;28;20033;-67
2021/04/30 03:42:07;;;;;;;4.38;1.90;;;;;;;;;;5008660;28;20048;-67
2021/04/30 03:44:33;;;;;;;4.05;1.83;;;;;;;;;;5007502;28;20457;-68
2021/04/30 03:46:59;;;;;;;4.35;2.05;;;;;;;;;;5008623;28;20062;-66
2021/04/30 03:49:25;;;;;;;3.38;1.75;;;;;;;;;;5009846;28;20018;-67
2021/04/30 03:51:52;;;;;;;4.95;2.03;;;;;;;;;;5009724;28;20029;-69
2021/04/30 03:54:18;;;;;;;3.78;1.67;;;;;;;;;;5041310;28;20121;-67
2021/04/30 03:56:44;;;;;;;3.85;1.90;;;;;;;;;;5024679;27;20589;-67
2021/04/30 03:59:10;;;;;;;6.93;2.03;;;;;;;;;;5041171;28;20026;-67
2021/04/30 04:01:36;;;;;;;4.50;1.83;;;;;;;;;;5009643;28;20033;-67
2021/04/30 04:04:02;;;;;;;3.70;1.70;;;;;;;;;;5008430;28;20029;-67
2021/04/30 04:06:28;;;;;;;4.88;2.03;;;;;;;;;;5027995;27;20073;-67
2021/04/30 04:08:54;;;;;;;10.20;1.77;;;;;;;;;;4988770;28;20026;-67
2021/04/30 04:11:21;;;;;;;4.18;2.10;;;;;;;;;;4990273;28;20022;-66
2021/04/30 04:13:47;;;;;;;4.10;2.08;;;;;;;;;;4990246;28;20029;-67
2021/04/30 04:16:13;;;;;;;4.38;2.03;;;;;;;;;;4997794;28;20029;-67
2021/04/30 04:18:39;;;;;;;4.28;2.00;;;;;;;;;;5009313;28;20026;-67
2021/04/30 04:21:05;;;;;;;6.05;2.05;;;;;;;;;;5033772;28;20071;-66
2021/04/30 04:23:31;;;;;;;5.57;1.95;;;;;;;;;;4989548;28;20034;-67
2021/04/30 04:25:58;;;;;;;5.28;2.10;;;;;;;;;;4992482;28;20022;-65
2021/04/30 04:28:24;;;;;;;7.75;2.28;;;;;;;;;;5040901;28;20026;-67
2021/04/30 04:30:52;;;;;;;4.47;2.10;;;;;;;;;;5040803;28;20038;-67
2021/04/30 04:33:18;;;;;;;3.72;1.80;;;;;;;;;;5008312;28;20030;-67
2021/04/30 04:35:44;;;;;;;4.18;2.08;;;;;;;;;;5009076;28;20083;-67
2021/04/30 04:38:10;;;;;;;4.35;1.70;;;;;;;;;;5022666;28;20110;-67
2021/04/30 04:40:36;;;;;;;3.83;1.70;;;;;;;;;;4989637;28;20506;-68
2021/04/30 04:43:02;;;;;;;4.07;2.10;;;;;;;;;;4989558;28;20073;-67
2021/04/30 04:45:29;;;;;;;4.10;1.92;;;;;;;;;;4992184;28;20120;-67
2021/04/30 04:47:55;;;;;;;5.22;1.70;;;;;;;;;;5027021;28;20076;-67
2021/04/30 04:50:21;;;;;;;4.00;1.92;;;;;;;;;;4989297;28;20015;-67
2021/04/30 04:52:47;;;;;;;4.75;2.28;;;;;;;;;;4989447;28;20014;-67
2021/04/30 04:55:16;;;;;;;4.70;2.63;;;;;;;;;;5006550;28;20542;-67
2021/04/30 04:57:42;;;;;;;4.93;2.38;;;;;;;;;;5012204;28;20082;-67
2021/04/30 05:00:09;;;;;;;4.07;2.03;;;;;;;;;;5011899;28;20638;-67
2021/04/30 05:02:35;;;;;;;4.32;2.15;;;;;;;;;;5043762;27;20124;-67
2021/04/30 05:05:01;;;;;;;4.43;1.90;;;;;;;;;;5043762;28;20068;-67
2021/04/30 05:07:27;;;;;;;4.32;1.95;;;;;;;;;;5044152;28;20022;-67
2021/04/30 05:09:53;;;;;;;5.38;2.00;;;;;;;;;;5012164;28;20033;-68
2021/04/30 05:12:19;;;;;;;4.90;2.03;;;;;;;;;;5010026;28;20125;-67
2021/04/30 05:14:45;;;;;;;4.57;2.03;;;;;;;;;;5012045;28;20570;-67
2021/04/30 05:17:12;;;;;;;5.13;2.42;;;;;;;;;;5009261;28;20034;-67
2021/04/30 05:19:38;;;;;;;4.85;2.08;;;;;;;;;;5010509;28;20050;-67
2021/04/30 05:22:08;;;;;;;5.10;2.15;;;;;;;;;;5011886;28;20034;-67
2021/04/30 05:24:34;;;;;;;4.47;2.08;;;;;;;;;;5010776;28;20026;-69
2021/04/30 05:27:00;;;;;;;5.55;2.20;;;;;;;;;;5010792;28;20058;-67
2021/04/30 05:29:26;;;;;;;4.45;2.33;;;;;;;;;;5010864;28;20423;-67
2021/04/30 05:31:53;;;;;;;5.68;2.22;;;;;;;;;;5011608;28;20381;-67
2021/04/30 05:34:19;;;;;;;3.90;2.30;;;;;;;;;;5010149;28;20022;-67
2021/04/30 05:36:45;;;;;;;5.95;2.17;;;;;;;;;;5011876;28;20032;-67
2021/04/30 05:39:11;;;;;;;4.82;2.38;;;;;;;;;;5011700;28;20034;-67
2021/04/30 05:41:37;;;;;;;4.13;2.00;;;;;;;;;;5009783;28;20442;-67
2021/04/30 05:44:03;;;;;;;4.97;2.30;;;;;;;;;;5011420;28;20482;-67
2021/04/30 05:46:29;;;;;;;5.18;2.20;;;;;;;;;;5001713;28;20044;-67
2021/04/30 05:48:55;;;;;;;5.97;2.40;;;;;;;;;;5006850;28;20021;-67
2021/04/30 05:51:21;;;;;;;4.35;2.00;;;;;;;;;;5011092;28;20037;-67
2021/04/30 05:53:47;;;;;;;4.97;2.53;;;;;;;;;;5011428;28;20095;-68
2021/04/30 05:56:13;;;;;;;5.65;2.70;;;;;;;;;;5011362;28;20036;-67
2021/04/30 05:58:39;;;;;;;5.93;2.80;;;;;;;;;;5011337;28;20087;-67
2021/04/30 06:01:05;;;;;;;7.68;2.55;;;;;;;;;;5003247;28;20691;-67
2021/04/30 06:03:31;;;;;;;6.05;2.63;;;;;;;;;;5013798;28;20104;-67
2021/04/30 06:05:57;;;;;;;6.70;2.72;;;;;;;;;;5113620;28;20045;-67
2021/04/30 06:08:23;;;;;;;4.32;2.13;;;;;;;;;;5113131;28;20060;-67
2021/04/30 06:10:49;;;;;;;5.10;2.22;;;;;;;;;;5097376;28;20023;-67
2021/04/30 06:13:16;;;;;;;4.97;2.53;;;;;;;;;;5010988;28;20097;-67
2021/04/30 06:15:42;;;;;;;5.03;2.45;;;;;;;;;;5011209;28;20057;-67
2021/04/30 06:18:08;;;;;;;5.25;2.17;;;;;;;;;;5011294;28;20393;-67
2021/04/30 06:20:34;;;;;;;7.40;2.58;;;;;;;;;;5010154;28;20517;-67
2021/04/30 06:23:00;;;;;;;4.05;2.28;;;;;;;;;;5010838;28;20120;-67
2021/04/30 06:25:26;;;;;;;5.97;2.45;;;;;;;;;;5009491;28;20018;-67
2021/04/30 06:27:52;;;;;;;5.18;2.50;;;;;;;;;;5010501;28;20527;-68
2021/04/30 06:30:18;;;;;;;6.43;2.50;;;;;;;;;;5009173;28;20549;-64
2021/04/30 06:32:44;;;;;;;5.93;2.95;;;;;;;;;;5009194;28;20045;-69
2021/04/30 06:35:11;;;;;;;9.40;3.67;;;;;;;;;;5009709;28;20022;-71
2021/04/30 06:37:38;;;;;;;12.38;5.57;;;;;;;;;;5009628;28;20655;-68
2021/04/30 06:40:05;;;;;;;12.32;4.88;;;;;;;;;;5007773;28;20026;-69
2021/04/30 06:42:31;;;;;;;12.65;6.03;;;;;;;;;;4997774;28;20111;-70
2021/04/30 06:44:57;;;;;;;9.05;4.55;;;;;;;;;;5010035;28;20022;-70
2021/04/30 06:47:23;;;;;;;8.85;5.15;;;;;;;;;;5010105;28;20109;-68
2021/04/30 06:49:49;;;;;;;16.35;5.82;;;;;;;;;;5010132;28;20029;-68
2021/04/30 06:52:15;;;;;;;9.90;4.68;;;;;;;;;;5009732;28;20034;-73
2021/04/30 06:54:41;;;;;;;8.52;4.43;;;;;;;;;;5007869;28;20117;-73
2021/04/30 06:57:08;;;;;;;9.50;4.35;;;;;;;;;;5041943;28;20443;-72
2021/04/30 06:59:34;;;;;;;16.50;4.40;;;;;;;;;;5009810;28;20058;-72
2021/04/30 07:02:00;;;;;;;11.82;4.70;;;;;;;;;;5006599;28;20045;-75
2021/04/30 07:04:26;;;;;;;8.55;4.40;;;;;;;;;;5022003;28;20033;-69
2021/04/30 07:06:52;;;;;;;10.02;4.03;;;;;;;;;;5029729;28;20064;-73
2021/04/30 07:09:19;;;;;;;8.30;3.45;;;;;;;;;;5035962;28;20096;-74
2021/04/30 07:11:45;;;;;;;12.60;3.35;;;;;;;;;;5033642;28;20508;-73
2021/04/30 07:14:11;;;;;;;8.20;3.33;;;;;;;;;;4998801;28;20424;-74
2021/04/30 07:16:37;;;;;;;7.72;3.30;;;;;;;;;;5076029;28;20016;-74
2021/04/30 07:19:03;;;;;;;5.60;3.65;;;;;;;;;;5018329;28;20149;-72
2021/04/30 07:21:29;;;;;;;5.85;3.35;;;;;;;;;;5012251;28;20025;-73
2021/04/30 07:23:55;;;;;;;10.13;3.22;;;;;;;;;;5019733;28;20029;-73
2021/04/30 07:26:21;;;;;;;5.88;3.17;;;;;;;;;;5072905;28;20011;-73
2021/04/30 07:28:47;;;;;;;13.65;3.67;;;;;;;;;;5020828;28;20026;-75
2021/04/30 07:31:13;;;;;;;8.75;3.80;;;;;;;;;;5071616;28;20073;-74
2021/04/30 07:33:46;;;;;;;7.13;3.60;;;;;;;;;;5060079;27;20015;-73
2021/04/30 07:36:12;;;;;;;6.47;3.50;;;;;;;;;;5054725;28;20026;-72
2021/04/30 07:38:38;;;;;;;5.85;3.22;;;;;;;;;;5081985;28;20073;-72
2021/04/30 07:41:04;;;;;;;7.32;2.85;;;;;;;;;;5010477;28;20026;-74
2021/04/30 07:43:30;;;;;;;6.88;3.40;;;;;;;;;;5041049;28;20027;-75
2021/04/30 07:45:59;;;;;;;6.82;3.67;;;;;;;;;;5017063;28;20490;-72
2021/04/30 07:48:25;;;;;;;7.57;3.90;;;;;;;;;;5028494;28;20090;-74
2021/04/30 07:50:51;;;;;;;6.53;3.30;;;;;;;;;;5096108;28;20016;-74
2021/04/30 07:53:17;;;;;;;6.38;3.38;;;;;;;;;;5025606;28;20025;-75
2021/04/30 07:55:43;;;;;;;5.07;3.00;;;;;;;;;;5044374;28;20106;-75
2021/04/30 07:58:09;;;;;;;6.00;3.65;;;;;;;;;;5035257;28;20020;-75
2021/04/30 08:00:35;;;;;;;6.65;3.53;;;;;;;;;;5031413;28;20030;-74
2021/04/30 08:03:01;;;;;;;7.22;3.58;;;;;;;;;;5008751;28;20042;-75
2021/04/30 08:05:28;;;;;;;8.70;3.70;;;;;;;;;;5013136;28;20032;-72
2021/04/30 08:07:54;;;;;;;7.22;3.97;;;;;;;;;;5039578;28;20030;-73
2021/04/30 08:10:20;;;;;;;6.68;3.70;;;;;;;;;;5006804;28;20140;-72
2021/04/30 08:12:47;;;;;;;7.03;4.03;;;;;;;;;;5038055;28;20150;-73
2021/04/30 08:15:15;;;;;;;5.60;3.70;;;;;;;;;;5017208;28;20029;-73
2021/04/30 08:17:42;;;;;;;9.68;4.43;;;;;;;;;;5009165;28;20029;-72
2021/04/30 08:20:09;;;;;;;12.93;3.58;;;;;;;;;;5001743;28;20030;-73
2021/04/30 08:22:35;;;;;;;6.72;3.55;;;;;;;;;;4996044;28;20074;-73
2021/04/30 08:25:01;;;;;;;7.95;3.97;;;;;;;;;;5044077;27;20022;-72
2021/04/30 08:27:27;;;;;;;6.80;3.65;;;;;;;;;;4998632;28;20063;-72
2021/04/30 08:29:53;;;;;;;7.57;3.53;;;;;;;;;;5005622;28;20389;-73
2021/04/30 08:32:20;;;;;;;7.38;3.60;;;;;;;;;;5014411;28;20049;-73
2021/04/30 08:34:46;;;;;;;6.28;3.65;;;;;;;;;;5079287;28;20046;-73
2021/04/30 08:37:12;;;;;;;6.32;3.83;;;;;;;;;;5003349;28;20060;-73
2021/04/30 08:39:40;;;;;;;7.80;3.83;;;;;;;;;;5005050;28;20030;-74
2021/04/30 08:42:06;;;;;;;6.40;3.60;;;;;;;;;;5037901;28;20042;-74
2021/04/30 08:44:32;;;;;;;7.32;4.00;;;;;;;;;;5058848;28;20015;-74
2021/04/30 08:46:58;;;;;;;7.10;3.92;;;;;;;;;;5020170;28;20031;-74
2021/04/30 08:49:24;;;;;;;9.95;4.47;;;;;;;;;;5019336;28;20029;-74
2021/04/30 08:51:50;;;;;;;6.55;3.75;;;;;;;;;;5029113;28;20092;-74
2021/04/30 08:54:16;;;;;;;6.03;3.60;;;;;;;;;;5016965;28;20489;-73
2021/04/30 08:56:54;;;;;;;10.00;4.40;;;;;;;;;;5012941;28;20026;-72
2021/04/30 08:59:26;;;;;;;9.23;4.38;;;;;;;;;;5001072;28;20018;-73
2021/04/30 09:01:52;;;;;;;8.73;4.75;;;;;;;;;;5034895;28;20096;-70
2021/04/30 09:04:18;;;;;;;13.18;5.25;;;;;;;;;;5009198;28;20029;-70
2021/04/30 09:06:45;;;;;;;10.65;5.50;;;;;;;;;;5021486;28;20167;-73
2021/04/30 09:09:15;;;;;;;9.77;5.25;;;;;;;;;;5013355;28;20124;-74
2021/04/30 09:11:54;;;;;;;10.07;5.75;;;;;;;;;;5012333;28;20105;-72
2021/04/30 09:14:20;;;;;;;9.57;5.10;;;;;;;;;;5016478;28;20041;-72
2021/04/30 09:17:05;;;;;;;8.35;4.82;;;;;;;;;;5021296;28;20057;-73
2021/04/30 09:19:35;;;;;;;8.73;5.40;;;;;;;;;;5022278;28;20042;-75
2021/04/30 09:22:03;;;;;;;8.43;4.55;;;;;;;;;;5018727;28;20065;-73
2021/04/30 09:24:29;;;;;;;11.20;5.13;;;;;;;;;;5097965;27;20020;-75
2021/04/30 09:26:56;;;;;;;10.73;5.82;;;;;;;;;;5032290;28;20034;-80
2021/04/30 09:29:22;;;;;;;12.38;4.57;;;;;;;;;;5008032;28;20030;-73
2021/04/30 09:31:49;;;;;;;8.30;5.18;;;;;;;;;;4999878;28;20055;-68
2021/04/30 09:34:23;;;;;;;9.73;4.25;;;;;;;;;;5022249;28;20021;-74
2021/04/30 09:37:02;;;;;;;29.65;5.53;;;;;;;;;;5022916;28;20028;-71
2021/04/30 09:39:29;;;;;;;17.30;5.15;;;;;;;;;;5008974;28;20105;-71
2021/04/30 09:42:05;;;;;;;11.13;5.00;;;;;;;;;;5021361;28;20529;-72
2021/04/30 09:44:35;;;;;;;28.65;5.13;;;;;;;;;;5009098;28;20018;-71
2021/04/30 09:47:20;;;;;;;10.50;4.22;;;;;;;;;;5098404;27;20019;-71
2021/04/30 09:49:48;;;;;;;17.50;4.57;;;;;;;;;;4996190;28;20064;-71
2021/04/30 09:52:14;;;;;;;28.40;4.65;;;;;;;;;;5078825;27;20119;-71
2021/04/30 09:54:41;;;;;;;12.65;3.78;;;;;;;;;;5060936;28;20013;-76
2021/04/30 09:57:15;;;;;;;94.82;6.40;;;;;;;;;;5099007;28;20145;-79
2021/04/30 09:59:42;;;;;;;42.40;5.65;;;;;;;;;;4992353;28;20636;-76
2021/04/30 10:02:18;;;;;;;9.23;3.60;;;;;;;;;;5073895;27;20058;-71
2021/04/30 10:04:45;;;;;;;16.02;3.80;;;;;;;;;;5046073;28;20367;-73
2021/04/30 10:07:33;;;;;;;8.75;3.78;;;;;;;;;;5028788;28;20461;-72
2021/04/30 10:10:02;;;;;;;10.85;3.63;;;;;;;;;;5023571;28;20034;-71
2021/04/30 10:12:28;;;;;;;21.35;4.60;;;;;;;;;;5050183;27;20030;-72
2021/04/30 10:14:55;;;;;;;14.48;4.40;;;;;;;;;;5060961;28;20019;-73
2021/04/30 10:17:22;;;;;;;19.52;3.53;;;;;;;;;;5042567;27;20034;-75
2021/04/30 10:19:49;;;;;;;16.58;4.35;;;;;;;;;;5029745;28;20526;-75
2021/04/30 10:22:25;;;;;;;13.93;3.70;;;;;;;;;;5068014;28;20036;-77
2021/04/30 10:24:56;;;;;;;11.60;3.30;;;;;;;;;;5053232;28;20029;-71
2021/04/30 10:27:28;;;;;;;5.88;2.80;;;;;;;;;;5098979;28;20016;-70
2021/04/30 10:30:17;;;;;;;9.60;2.90;;;;;;;;;;5046594;28;20468;-71
2021/04/30 10:32:49;;;;;;;10.00;3.20;;;;;;;;;;5102658;28;20032;-71
2021/04/30 10:35:18;;;;;;;25.30;3.15;;;;;;;;;;5027426;28;20030;-71
2021/04/30 10:37:46;;;;;;;10.30;3.13;;;;;;;;;;5038937;28;20022;-71
2021/04/30 10:40:13;;;;;;;8.90;3.03;;;;;;;;;;4990542;28;20026;-71
2021/04/30 10:42:44;;;;;;;16.00;3.20;;;;;;;;;;4990700;28;20044;-71
2021/04/30 10:45:12;;;;;;;24.37;3.07;;;;;;;;;;4997876;28;20022;-71
2021/04/30 10:47:38;;;;;;;20.48;3.78;;;;;;;;;;4992106;28;20280;-72
2021/04/30 10:50:16;;;;;;;17.40;3.15;;;;;;;;;;5016671;28;20016;-74
2021/04/30 10:52:43;;;;;;;11.63;3.28;;;;;;;;;;5011868;28;20389;-68
2021/04/30 10:55:11;;;;;;;20.00;3.55;;;;;;;;;;5008218;28;20045;-70
2021/04/30 10:57:47;;;;;;;10.57;3.20;;;;;;;;;;5015888;28;20029;-73
2021/04/30 11:00:14;;;;;;;9.25;2.92;;;;;;;;;;5098161;28;20035;-74
2021/04/30 11:02:40;;;;;;;21.10;3.78;;;;;;;;;;5029220;28;20037;-68
2021/04/30 11:05:06;;;;;;;11.07;2.60;;;;;;;;;;5057071;28;20042;-70
2021/04/30 11:07:40;;;;;;;7.72;3.30;;;;;;;;;;5045924;28;20046;-72
2021/04/30 11:10:31;;;;;;;8.70;3.35;;;;;;;;;;5125123;27;20028;-72
2021/04/30 11:13:07;;;;;;;11.63;3.30;;;;;;;;;;5060742;28;20127;-73
2021/04/30 11:15:51;;;;;;;7.13;3.10;;;;;;;;;;5072755;28;20026;-72
2021/04/30 11:18:20;;;;;;;9.75;3.17;;;;;;;;;;5129461;27;20535;-74
2021/04/30 11:20:59;;;;;;;7.75;3.00;;;;;;;;;;5054699;28;20023;-72
2021/04/30 11:23:26;;;;;;;17.45;3.53;;;;;;;;;;5064625;28;20033;-70
2021/04/30 11:25:58;;;;;;;8.00;3.40;;;;;;;;;;5020571;28;20045;-72
2021/04/30 11:28:24;;;;;;;9.52;2.90;;;;;;;;;;5040508;28;20024;-70
2021/04/30 11:31:03;;;;;;;9.90;3.15;;;;;;;;;;5076211;28;20079;-70
2021/04/30 11:33:30;;;;;;;20.00;3.03;;;;;;;;;;5020975;28;20022;-75
2021/04/30 11:35:58;;;;;;;15.63;3.45;;;;;;;;;;5011220;28;20131;-76
2021/04/30 11:38:40;;;;;;;7.32;2.65;;;;;;;;;;5036438;28;20542;-77
2021/04/30 11:41:08;;;;;;;9.80;3.17;;;;;;;;;;5017996;28;20026;-74
2021/04/30 11:43:35;;;;;;;7.80;2.47;;;;;;;;;;5022359;28;20105;-79
2021/04/30 11:46:01;;;;;;;10.60;2.90;;;;;;;;;;5005304;28;20057;-74
2021/04/30 11:48:28;;;;;;;10.10;3.20;;;;;;;;;;5041962;27;20024;-77
2021/04/30 11:51:06;;;;;;;6.03;2.75;;;;;;;;;;5081915;28;20021;-76
2021/04/30 11:53:33;;;;;;;7.43;2.95;;;;;;;;;;5074138;28;20495;-81
2021/04/30 11:55:59;;;;;;;6.82;2.35;;;;;;;;;;5019916;28;20026;-71
2021/04/30 11:58:37;;;;;;;7.03;2.65;;;;;;;;;;5035613;28;20016;-74
2021/04/30 12:01:04;;;;;;;10.35;3.05;;;;;;;;;;5071733;27;20031;-73
2021/04/30 12:03:42;;;;;;;8.95;2.72;;;;;;;;;;5057488;28;20030;-78
2021/04/30 12:06:13;;;;;;;10.52;3.15;;;;;;;;;;5026190;28;20053;-75
2021/04/30 12:08:40;;;;;;;7.53;3.00;;;;;;;;;;5089875;28;20052;-75
2021/04/30 12:11:06;;;;;;;15.05;2.97;;;;;;;;;;5018226;28;20026;-74
2021/04/30 12:13:32;;;;;;;9.63;2.60;;;;;;;;;;5071511;28;20019;-75
2021/04/30 12:15:59;;;;;;;19.48;3.20;;;;;;;;;;5022326;28;20121;-74
2021/04/30 12:18:32;;;;;;;12.90;2.75;;;;;;;;;;5129366;27;20055;-75
2021/04/30 12:20:58;;;;;;;10.68;2.97;;;;;;;;;;5028706;28;20023;-72
2021/04/30 12:23:24;;;;;;;30.88;4.22;;;;;;;;;;4998304;28;20542;-75
2021/04/30 12:25:52;;;;;;;20.70;3.60;;;;;;;;;;5008981;28;20060;-70
2021/04/30 12:28:23;;;;;;;12.00;3.00;;;;;;;;;;5035274;28;20094;-80
2021/04/30 12:30:51;;;;;;;11.48;2.38;;;;;;;;;;5083811;28;20518;-79
2021/04/30 12:33:24;;;;;;;11.77;2.63;;;;;;;;;;5029296;28;20041;-71
2021/04/30 12:35:51;;;;;;;8.52;2.78;;;;;;;;;;4999564;28;20149;-78
2021/04/30 12:38:18;;;;;;;11.15;2.47;;;;;;;;;;5126900;27;20031;-73
2021/04/30 12:40:44;;;;;;;13.23;2.85;;;;;;;;;;4999640;28;20410;-72
2021/04/30 12:43:10;;;;;;;11.13;3.00;;;;;;;;;;5066997;28;20113;-71
2021/04/30 12:45:36;;;;;;;12.23;2.20;;;;;;;;;;5042018;28;20033;-67
2021/04/30 12:48:02;;;;;;;11.90;2.70;;;;;;;;;;5024405;28;20021;-67
2021/04/30 12:50:28;;;;;;;13.75;2.40;;;;;;;;;;5064745;28;20014;-76
2021/04/30 12:52:56;;;;;;;11.10;2.25;;;;;;;;;;5022775;28;20112;-75
2021/04/30 12:55:23;;;;;;;7.88;2.47;;;;;;;;;;5057315;28;20473;-69
2021/04/30 12:57:59;;;;;;;9.18;2.47;;;;;;;;;;5012961;28;20033;-75
2021/04/30 13:00:26;;;;;;;10.68;2.45;;;;;;;;;;5029904;28;20029;-71
2021/04/30 13:02:52;;;;;;;7.80;2.20;;;;;;;;;;5025329;28;20412;-73
2021/04/30 13:05:18;;;;;;;13.07;2.38;;;;;;;;;;5016252;28;20026;-72
2021/04/30 13:07:44;;;;;;;7.43;2.65;;;;;;;;;;5009284;28;20030;-73
2021/04/30 13:10:20;;;;;;;10.05;2.30;;;;;;;;;;5008661;28;20386;-72
2021/04/30 13:12:47;;;;;;;4.63;2.22;;;;;;;;;;5020352;28;20671;-69
2021/04/30 13:15:13;;;;;;;6.60;2.25;;;;;;;;;;5018816;28;20030;-68
2021/04/30 13:17:39;;;;;;;6.68;2.15;;;;;;;;;;5068868;28;20022;-67
2021/04/30 13:20:24;;;;;;;4.75;2.13;;;;;;;;;;5017476;28;20460;-69
2021/04/30 13:22:59;;;;;;;6.97;2.42;;;;;;;;;;5004294;28;20056;-69
2021/04/30 13:25:39;;;;;;;4.85;2.35;;;;;;;;;;5013884;28;20065;-68
2021/04/30 13:28:10;;;;;;;6.40;1.90;;;;;;;;;;5126868;27;20042;-68
2021/04/30 13:30:50;;;;;;;6.15;1.95;;;;;;;;;;5009527;28;20155;-68
2021/04/30 13:33:20;;;;;;;6.03;2.30;;;;;;;;;;5032711;27;20030;-72
2021/04/30 13:35:48;;;;;;;5.60;2.00;;;;;;;;;;5019669;28;20044;-73
2021/04/30 13:38:21;;;;;;;23.52;1.88;;;;;;;;;;5012882;28;20026;-74
2021/04/30 13:40:47;;;;;;;4.47;1.90;;;;;;;;;;5006416;28;20112;-72
2021/04/30 13:43:13;;;;;;;6.03;1.90;;;;;;;;;;5020698;28;20036;-66
2021/04/30 13:45:39;;;;;;;8.75;2.00;;;;;;;;;;5029094;28;20032;-71
2021/04/30 13:48:06;;;;;;;5.88;1.58;;;;;;;;;;5099588;28;20080;-72
2021/04/30 13:50:36;;;;;;;6.50;1.60;;;;;;;;;;5020830;28;20082;-73
2021/04/30 13:53:03;;;;;;;8.02;2.10;;;;;;;;;;5058820;28;20030;-69
2021/04/30 13:55:30;;;;;;;6.03;2.13;;;;;;;;;;5053707;28;20378;-69
2021/04/30 13:57:56;;;;;;;11.02;2.20;;;;;;;;;;5020272;28;20649;-69
2021/04/30 14:00:23;;;;;;;7.93;1.73;;;;;;;;;;5118610;27;20086;-69
2021/04/30 14:02:50;;;;;;;7.43;1.60;;;;;;;;;;5042148;28;20039;-78
2021/04/30 14:05:18;;;;;;;5.03;1.80;;;;;;;;;;5084313;27;20156;-72
2021/04/30 14:07:44;;;;;;;7.78;1.90;;;;;;;;;;5024653;28;20045;-74
2021/04/30 14:10:12;;;;;;;8.85;2.20;;;;;;;;;;5035343;28;20491;-76
2021/04/30 14:12:38;;;;;;;9.00;1.63;;;;;;;;;;5023977;28;20029;-79
2021/04/30 14:15:05;;;;;;;3.35;1.50;;;;;;;;;;5020417;28;20026;-79
2021/04/30 14:17:32;;;;;;;5.32;1.95;;;;;;;;;;5064591;28;20024;-76
2021/04/30 14:19:58;;;;;;;10.13;1.83;;;;;;;;;;5113431;28;20104;-69
2021/04/30 14:22:24;;;;;;;6.05;1.60;;;;;;;;;;5026361;28;20025;-69
2021/04/30 14:24:50;;;;;;;3.40;1.40;;;;;;;;;;5057573;28;20112;-68
2021/04/30 14:27:16;;;;;;;5.47;1.65;;;;;;;;;;5058904;28;20025;-71
2021/04/30 14:29:42;;;;;;;9.18;2.13;;;;;;;;;;5031419;28;20034;-72
2021/04/30 14:32:08;;;;;;;5.15;2.03;;;;;;;;;;5025523;28;20119;-74
2021/04/30 14:34:35;;;;;;;4.75;1.70;;;;;;;;;;5023887;28;20068;-74
2021/04/30 14:37:01;;;;;;;6.07;1.67;;;;;;;;;;5017851;28;20022;-76
2021/04/30 14:39:27;;;;;;;7.20;1.77;;;;;;;;;;5072344;28;20027;-72
2021/04/30 14:41:53;;;;;;;7.60;1.50;;;;;;;;;;5054590;28;20071;-68
2021/04/30 14:44:19;;;;;;;4.78;1.45;;;;;;;;;;5004536;28;20044;-68